Time;durP1;ratioP1;P1;durP2;ratioP2;P2;SDS_P1;SDS_P2;PMS_P1;PMS_P2;Temp;Humidity;BMP_temperature;BMP_pressure;BME280_temperature;BME280_humidity;BME280_pressure;Samples;Min_cycle;Max_cycle;Signal;HPM_P1;HPM_P2
2021/12/20 00:00:54;;;;;;;5.85;4.82;;;;;;;;;;8284855;28;20038;-65
2021/12/20 00:04:54;;;;;;;6.40;4.43;;;;;;;;;;8288056;28;20024;-65
2021/12/20 00:08:54;;;;;;;6.72;4.63;;;;;;;;;;8282794;28;20087;-65
2021/12/20 00:12:54;;;;;;;5.50;4.72;;;;;;;;;;8284673;28;20021;-65
2021/12/20 00:16:54;;;;;;;5.35;4.45;;;;;;;;;;8285412;28;20061;-65
2021/12/20 00:20:55;;;;;;;7.65;4.57;;;;;;;;;;8287045;28;20410;-64
2021/12/20 00:24:56;;;;;;;6.68;4.95;;;;;;;;;;8282448;28;20475;-65
2021/12/20 00:28:56;;;;;;;5.70;4.15;;;;;;;;;;8282640;28;20032;-65
2021/12/20 00:32:56;;;;;;;4.70;3.78;;;;;;;;;;8285016;28;20331;-65
2021/12/20 00:37:02;;;;;;;5.55;4.40;;;;;;;;;;8283669;28;20027;-65
2021/12/20 00:41:02;;;;;;;5.93;4.30;;;;;;;;;;8285337;28;20377;-65
2021/12/20 00:45:03;;;;;;;6.45;4.20;;;;;;;;;;8282450;28;20021;-65
2021/12/20 00:49:03;;;;;;;4.53;3.72;;;;;;;;;;8282750;28;20068;-65
2021/12/20 00:53:03;;;;;;;3.75;3.28;;;;;;;;;;8283818;28;20144;-65
2021/12/20 00:57:03;;;;;;;3.90;3.20;;;;;;;;;;8284233;28;20039;-65
2021/12/20 01:01:05;;;;;;;4.18;3.30;;;;;;;;;;8282467;28;20045;-65
2021/12/20 01:05:05;;;;;;;4.82;3.20;;;;;;;;;;8283077;28;20029;-65
2021/12/20 01:09:07;;;;;;;4.68;3.10;;;;;;;;;;8287680;28;20044;-65
2021/12/20 01:13:07;;;;;;;4.10;3.05;;;;;;;;;;8287670;28;20036;-65
2021/12/20 01:17:07;;;;;;;3.85;3.38;;;;;;;;;;8282589;28;20627;-65
2021/12/20 01:21:08;;;;;;;7.55;3.63;;;;;;;;;;8281760;28;20210;-65
2021/12/20 01:25:08;;;;;;;5.03;3.50;;;;;;;;;;8281897;28;20117;-65
2021/12/20 01:29:09;;;;;;;4.10;3.28;;;;;;;;;;8278949;28;20144;-65
2021/12/20 01:33:11;;;;;;;3.80;3.40;;;;;;;;;;8282108;28;20060;-65
2021/12/20 01:37:13;;;;;;;4.90;3.40;;;;;;;;;;8283673;28;20405;-65
2021/12/20 01:41:14;;;;;;;3.78;2.80;;;;;;;;;;8281658;28;20025;-65
2021/12/20 01:45:16;;;;;;;3.60;3.30;;;;;;;;;;8281890;28;20017;-65
2021/12/20 01:49:17;;;;;;;3.63;3.00;;;;;;;;;;8288670;28;20031;-64
2021/12/20 01:53:20;;;;;;;6.50;3.20;;;;;;;;;;8286410;28;20103;-65
2021/12/20 01:57:22;;;;;;;3.10;2.78;;;;;;;;;;8290672;28;20445;-64
2021/12/20 02:01:23;;;;;;;2.45;2.15;;;;;;;;;;8287575;28;20072;-64
2021/12/20 02:05:33;;;;;;;2.85;2.42;;;;;;;;;;8289643;28;20141;-65
2021/12/20 02:09:35;;;;;;;4.15;2.47;;;;;;;;;;8289923;28;20175;-64
2021/12/20 02:13:36;;;;;;;3.33;2.50;;;;;;;;;;8288690;28;20570;-65
2021/12/20 02:17:37;;;;;;;2.60;2.40;;;;;;;;;;8288000;28;20037;-64
2021/12/20 02:21:38;;;;;;;2.70;2.35;;;;;;;;;;8287732;28;20260;-64
2021/12/20 02:25:38;;;;;;;4.05;2.30;;;;;;;;;;8286464;28;20416;-65
2021/12/20 02:29:45;;;;;;;2.53;2.33;;;;;;;;;;8287910;28;20035;-65
2021/12/20 02:38:05;;;;;;;3.85;2.35;;;;;;;;;;8292701;28;20044;-65
2021/12/20 02:42:05;;;;;;;2.30;2.08;;;;;;;;;;8287428;28;20025;-65
2021/12/20 02:46:26;;;;;;;5.10;2.47;;;;;;;;;;8288577;28;20041;-66
2021/12/20 02:50:27;;;;;;;2.20;1.98;;;;;;;;;;8289372;28;20467;-65
2021/12/20 02:54:27;;;;;;;4.30;2.40;;;;;;;;;;8286308;28;20067;-65
2021/12/20 02:58:27;;;;;;;3.45;2.45;;;;;;;;;;8287692;28;20025;-65
2021/12/20 03:02:27;;;;;;;2.33;2.13;;;;;;;;;;8285958;28;20041;-65
2021/12/20 03:06:42;;;;;;;3.05;2.40;;;;;;;;;;8288693;28;20037;-65
2021/12/20 03:10:42;;;;;;;2.50;1.63;;;;;;;;;;8291165;28;20024;-65
2021/12/20 03:14:46;;;;;;;1.93;1.70;;;;;;;;;;8284477;28;20035;-65
2021/12/20 03:18:46;;;;;;;3.58;2.00;;;;;;;;;;8286809;28;20287;-65
2021/12/20 03:22:47;;;;;;;5.38;2.05;;;;;;;;;;8289861;28;20030;-65
2021/12/20 03:26:47;;;;;;;2.67;1.50;;;;;;;;;;8285062;28;20032;-65
2021/12/20 03:30:47;;;;;;;5.00;1.60;;;;;;;;;;8283561;28;20040;-65
2021/12/20 03:34:48;;;;;;;2.60;1.63;;;;;;;;;;8284030;28;20309;-65
2021/12/20 03:38:48;;;;;;;3.65;1.52;;;;;;;;;;8282024;28;20281;-65
2021/12/20 03:42:48;;;;;;;4.00;1.70;;;;;;;;;;8287841;28;20300;-65
2021/12/20 03:46:48;;;;;;;6.60;1.88;;;;;;;;;;8284781;28;20839;-66
2021/12/20 03:50:49;;;;;;;1.98;1.20;;;;;;;;;;8286804;28;20048;-65
2021/12/20 03:54:49;;;;;;;4.05;1.48;;;;;;;;;;8285679;28;20059;-65
2021/12/20 03:58:49;;;;;;;4.38;1.35;;;;;;;;;;8286777;28;20041;-66
2021/12/20 04:02:49;;;;;;;5.32;1.52;;;;;;;;;;8286783;28;20296;-65
2021/12/20 04:06:50;;;;;;;4.40;1.50;;;;;;;;;;8285016;28;20056;-65
2021/12/20 04:10:50;;;;;;;2.67;1.30;;;;;;;;;;8285083;28;20031;-66
2021/12/20 04:14:50;;;;;;;1.92;1.10;;;;;;;;;;8286201;28;20033;-66
2021/12/20 04:18:50;;;;;;;2.28;1.30;;;;;;;;;;8281778;28;20083;-66
2021/12/20 04:22:51;;;;;;;5.30;1.52;;;;;;;;;;8285188;28;20642;-65
2021/12/20 04:26:51;;;;;;;1.92;1.30;;;;;;;;;;8283557;28;20616;-65
2021/12/20 04:30:51;;;;;;;3.47;1.40;;;;;;;;;;8284982;28;20053;-66
2021/12/20 04:34:51;;;;;;;5.50;1.50;;;;;;;;;;8285949;28;20128;-66
2021/12/20 04:38:51;;;;;;;3.97;1.50;;;;;;;;;;8283209;28;20029;-66
2021/12/20 04:42:53;;;;;;;3.95;1.73;;;;;;;;;;8286248;28;20173;-65
2021/12/20 04:46:53;;;;;;;3.40;1.40;;;;;;;;;;8284889;28;20041;-66
2021/12/20 04:50:54;;;;;;;4.57;1.60;;;;;;;;;;8285658;28;20029;-66
2021/12/20 04:54:54;;;;;;;4.97;1.67;;;;;;;;;;8285755;28;20028;-66
2021/12/20 04:58:54;;;;;;;4.22;1.80;;;;;;;;;;8285853;28;20026;-66
2021/12/20 05:02:54;;;;;;;4.63;1.75;;;;;;;;;;8281495;28;20046;-66
2021/12/20 05:06:55;;;;;;;4.60;1.83;;;;;;;;;;8285360;28;20121;-66
2021/12/20 05:10:55;;;;;;;3.45;1.65;;;;;;;;;;8283004;28;20128;-66
2021/12/20 05:14:55;;;;;;;2.90;1.70;;;;;;;;;;8281975;28;20152;-65
2021/12/20 05:18:55;;;;;;;3.67;1.77;;;;;;;;;;8284141;28;20033;-65
2021/12/20 05:22:56;;;;;;;5.63;1.85;;;;;;;;;;8284927;28;20037;-65
2021/12/20 05:26:56;;;;;;;5.82;1.80;;;;;;;;;;8289720;28;20026;-65
2021/12/20 05:30:56;;;;;;;5.97;1.85;;;;;;;;;;8288432;28;20457;-66
2021/12/20 05:34:57;;;;;;;6.47;2.33;;;;;;;;;;8288192;28;20033;-65
2021/12/20 05:38:57;;;;;;;8.17;2.00;;;;;;;;;;8289449;28;20029;-65
2021/12/20 05:42:57;;;;;;;3.40;1.95;;;;;;;;;;8288626;28;20851;-65
2021/12/20 05:46:57;;;;;;;5.00;1.83;;;;;;;;;;8287562;28;20392;-65
2021/12/20 05:50:58;;;;;;;8.55;2.40;;;;;;;;;;8284302;28;20223;-65
2021/12/20 05:54:58;;;;;;;8.48;2.75;;;;;;;;;;8294050;28;20025;-65
2021/12/20 05:58:58;;;;;;;5.57;2.55;;;;;;;;;;8287420;28;20201;-66
2021/12/20 06:02:59;;;;;;;5.45;2.80;;;;;;;;;;8276896;28;20132;-65
2021/12/20 06:06:59;;;;;;;7.30;2.72;;;;;;;;;;8290887;28;20026;-65
2021/12/20 06:10:59;;;;;;;6.57;3.58;;;;;;;;;;8288731;28;20037;-65
2021/12/20 06:14:59;;;;;;;6.40;3.03;;;;;;;;;;8289800;28;20029;-65
2021/12/20 06:18:59;;;;;;;6.53;2.90;;;;;;;;;;8288521;28;20037;-65
2021/12/20 06:23:00;;;;;;;4.43;2.83;;;;;;;;;;8287932;28;20956;-65
2021/12/20 06:27:00;;;;;;;3.97;2.60;;;;;;;;;;8288417;28;20059;-65
2021/12/20 06:31:00;;;;;;;4.30;2.60;;;;;;;;;;8291040;28;20061;-65
2021/12/20 06:35:00;;;;;;;5.47;2.35;;;;;;;;;;8288760;28;20032;-66
2021/12/20 06:39:01;;;;;;;4.18;2.20;;;;;;;;;;8288105;28;20965;-65
2021/12/20 06:43:02;;;;;;;6.10;2.28;;;;;;;;;;8288927;28;20955;-65
2021/12/20 06:47:02;;;;;;;8.75;2.50;;;;;;;;;;8287996;28;20048;-65
2021/12/20 06:51:02;;;;;;;5.68;2.45;;;;;;;;;;8280575;28;20045;-64
2021/12/20 06:55:03;;;;;;;6.65;2.50;;;;;;;;;;8284032;28;20052;-65
2021/12/20 06:59:03;;;;;;;7.00;2.47;;;;;;;;;;8284165;28;20041;-65
2021/12/20 07:03:03;;;;;;;5.95;2.40;;;;;;;;;;8283879;28;20080;-65
2021/12/20 07:07:03;;;;;;;4.25;2.50;;;;;;;;;;8282068;28;20029;-64
2021/12/20 07:11:05;;;;;;;11.05;2.60;;;;;;;;;;8280923;28;20103;-64
2021/12/20 07:15:09;;;;;;;7.97;2.97;;;;;;;;;;8282563;28;20021;-65
2021/12/20 07:19:09;;;;;;;8.32;2.38;;;;;;;;;;8284399;28;20041;-64
2021/12/20 07:23:09;;;;;;;9.43;2.57;;;;;;;;;;8283471;28;20044;-65
2021/12/20 07:27:10;;;;;;;12.18;3.40;;;;;;;;;;8278101;28;20279;-64
2021/12/20 07:31:11;;;;;;;9.90;2.83;;;;;;;;;;8278177;28;20037;-65
2021/12/20 07:35:12;;;;;;;6.45;2.80;;;;;;;;;;8282148;28;20029;-65
2021/12/20 07:39:12;;;;;;;11.00;2.58;;;;;;;;;;8283101;28;20354;-65
2021/12/20 07:43:14;;;;;;;10.38;3.00;;;;;;;;;;8282192;28;20052;-65
2021/12/20 07:47:14;;;;;;;10.20;3.17;;;;;;;;;;8284433;28;20038;-65
2021/12/20 07:51:14;;;;;;;12.02;3.33;;;;;;;;;;8282787;28;20708;-65
2021/12/20 07:55:15;;;;;;;11.50;2.88;;;;;;;;;;8280848;28;20389;-65
2021/12/20 07:59:15;;;;;;;11.15;2.40;;;;;;;;;;8279135;28;20064;-65
2021/12/20 08:03:16;;;;;;;15.30;3.08;;;;;;;;;;8280121;28;20168;-65
2021/12/20 08:07:17;;;;;;;12.05;2.63;;;;;;;;;;8282125;28;20119;-65
2021/12/20 08:11:17;;;;;;;12.05;2.30;;;;;;;;;;8280609;28;20025;-65
2021/12/20 08:15:18;;;;;;;9.27;2.40;;;;;;;;;;8282303;28;21076;-65
2021/12/20 08:19:18;;;;;;;9.88;2.78;;;;;;;;;;8283403;28;20349;-65
2021/12/20 08:23:19;;;;;;;12.23;2.55;;;;;;;;;;8284398;28;20021;-65
2021/12/20 08:27:19;;;;;;;11.60;2.10;;;;;;;;;;8280826;28;20037;-65
2021/12/20 08:31:19;;;;;;;12.18;2.33;;;;;;;;;;8277918;28;20265;-65
2021/12/20 08:35:19;;;;;;;11.25;2.60;;;;;;;;;;8280503;28;20371;-65
2021/12/20 08:39:19;;;;;;;13.53;2.93;;;;;;;;;;8281422;28;20304;-65
2021/12/20 08:43:20;;;;;;;13.13;2.15;;;;;;;;;;8279622;28;20281;-65
2021/12/20 08:47:21;;;;;;;13.00;2.95;;;;;;;;;;8280318;28;20041;-65
2021/12/20 08:51:21;;;;;;;15.48;2.88;;;;;;;;;;8282227;28;20045;-65
2021/12/20 08:55:22;;;;;;;19.95;2.47;;;;;;;;;;8278391;28;20032;-65
2021/12/20 08:59:22;;;;;;;12.90;2.40;;;;;;;;;;8274458;28;20384;-65
2021/12/20 09:03:23;;;;;;;15.23;3.30;;;;;;;;;;8284925;28;20040;-65
2021/12/20 09:07:23;;;;;;;13.40;2.92;;;;;;;;;;8288888;28;20149;-65
2021/12/20 09:11:25;;;;;;;16.58;3.05;;;;;;;;;;8288846;28;20033;-65
2021/12/20 09:15:26;;;;;;;13.00;3.00;;;;;;;;;;8288807;28;20034;-65
2021/12/20 09:19:26;;;;;;;13.77;2.88;;;;;;;;;;8286366;28;20030;-65
2021/12/20 09:23:29;;;;;;;16.00;2.92;;;;;;;;;;8285738;28;20029;-64
2021/12/20 09:27:29;;;;;;;18.73;3.35;;;;;;;;;;8285766;28;20789;-65
2021/12/20 09:31:30;;;;;;;14.50;2.92;;;;;;;;;;8285597;28;20662;-65
2021/12/20 09:35:30;;;;;;;16.15;3.03;;;;;;;;;;8285739;28;20037;-65
2021/12/20 09:39:32;;;;;;;11.35;3.05;;;;;;;;;;8282898;28;20522;-65
2021/12/20 09:43:36;;;;;;;17.38;3.42;;;;;;;;;;8283718;28;20419;-65
2021/12/20 09:47:36;;;;;;;15.25;2.70;;;;;;;;;;8286468;28;20048;-65
2021/12/20 09:51:37;;;;;;;13.50;2.83;;;;;;;;;;8286819;28;20556;-65
2021/12/20 09:55:37;;;;;;;19.35;3.08;;;;;;;;;;8284208;28;20463;-65
2021/12/20 09:59:38;;;;;;;12.32;2.85;;;;;;;;;;8284304;28;20025;-65
2021/12/20 10:03:39;;;;;;;20.08;3.13;;;;;;;;;;8285815;28;20514;-65
2021/12/20 10:07:40;;;;;;;18.95;3.03;;;;;;;;;;8283198;28;20513;-65
2021/12/20 10:11:41;;;;;;;14.80;3.03;;;;;;;;;;8286483;28;20053;-64
2021/12/20 10:15:41;;;;;;;13.75;2.58;;;;;;;;;;8283592;28;20029;-65
2021/12/20 10:19:41;;;;;;;17.77;2.83;;;;;;;;;;8283053;28;20424;-65
2021/12/20 10:23:44;;;;;;;18.13;3.20;;;;;;;;;;8285189;28;20494;-64
2021/12/20 10:27:44;;;;;;;19.45;3.08;;;;;;;;;;8283351;28;20481;-65
2021/12/20 10:31:45;;;;;;;15.60;2.95;;;;;;;;;;8280709;28;20032;-65
2021/12/20 10:35:53;;;;;;;13.77;2.80;;;;;;;;;;8283281;28;20575;-65
2021/12/20 10:40:01;;;;;;;15.38;3.08;;;;;;;;;;8285200;28;20646;-64
2021/12/20 10:44:04;;;;;;;12.77;2.55;;;;;;;;;;8282069;28;20021;-64
2021/12/20 10:48:08;;;;;;;14.43;2.92;;;;;;;;;;8281272;28;20044;-64
2021/12/20 10:52:09;;;;;;;;;;;;;;;;;;8285262;28;20619;-64
2021/12/20 10:56:11;;;;;;;16.02;3.20;;;;;;;;;;8283805;28;19916;-65
2021/12/20 11:00:13;;;;;;;13.73;2.85;;;;;;;;;;8285032;28;20198;-65
2021/12/20 11:04:24;;;;;;;12.23;2.25;;;;;;;;;;8283390;28;21102;-65
2021/12/20 11:09:13;;;;;;;15.65;2.63;;;;;;;;;;8283152;28;20117;-64
2021/12/20 11:12:45;;;;;;;13.38;3.03;;;;;;;;;;8270359;28;20047;-65
2021/12/20 11:16:46;;;;;;;16.17;2.83;;;;;;;;;;8283178;28;20044;-65
2021/12/20 11:20:46;;;;;;;14.95;2.35;;;;;;;;;;8284872;28;20370;-64
2021/12/20 11:24:51;;;;;;;13.38;2.85;;;;;;;;;;8279939;28;20087;-64
2021/12/20 11:28:51;;;;;;;10.90;2.58;;;;;;;;;;8282936;28;20120;-65
2021/12/20 11:32:52;;;;;;;14.90;2.60;;;;;;;;;;8283037;28;20271;-65
2021/12/20 11:36:53;;;;;;;14.50;2.33;;;;;;;;;;8286690;28;20053;-65
2021/12/20 11:40:53;;;;;;;13.73;2.35;;;;;;;;;;8282605;28;20033;-65
2021/12/20 11:44:54;;;;;;;8.15;1.92;;;;;;;;;;8281616;28;20581;-65
2021/12/20 11:48:55;;;;;;;15.93;2.45;;;;;;;;;;8283125;28;22406;-65
2021/12/20 11:53:03;;;;;;;7.90;1.55;;;;;;;;;;8282318;28;20799;-65
2021/12/20 11:57:04;;;;;;;9.63;1.70;;;;;;;;;;8281468;28;20482;-65
2021/12/20 12:01:06;;;;;;;8.65;1.98;;;;;;;;;;8281714;28;20033;-65
2021/12/20 12:05:08;;;;;;;12.07;2.67;;;;;;;;;;8280133;28;20474;-65
2021/12/20 12:09:08;;;;;;;9.50;2.13;;;;;;;;;;8281270;28;20051;-65
2021/12/20 12:13:15;;;;;;;10.52;1.88;;;;;;;;;;8281883;28;20658;-65
2021/12/20 12:17:16;;;;;;;8.88;2.03;;;;;;;;;;8280630;28;20597;-65
2021/12/20 12:21:39;;;;;;;8.10;1.85;;;;;;;;;;8282261;28;20144;-64
2021/12/20 12:25:41;;;;;;;12.75;2.00;;;;;;;;;;8280413;28;20056;-65
2021/12/20 12:29:42;;;;;;;6.07;1.92;;;;;;;;;;8282878;28;20060;-65
2021/12/20 12:33:42;;;;;;;13.02;2.78;;;;;;;;;;8279972;28;20340;-64
2021/12/20 12:37:42;;;;;;;8.93;2.20;;;;;;;;;;8282026;28;20112;-64
2021/12/20 12:41:44;;;;;;;12.10;2.00;;;;;;;;;;8277635;28;20028;-64
2021/12/20 12:45:48;;;;;;;8.27;1.70;;;;;;;;;;8280749;28;20095;-64
2021/12/20 12:49:49;;;;;;;;;;;;;;;;;;8280771;28;20402;-64
2021/12/20 12:53:50;;;;;;;8.10;1.88;;;;;;;;;;8275546;28;19919;-64
2021/12/20 12:57:50;;;;;;;10.50;1.58;;;;;;;;;;8274986;28;20029;-64
2021/12/20 13:01:56;;;;;;;12.93;2.40;;;;;;;;;;8280068;28;20047;-64
2021/12/20 13:05:56;;;;;;;10.52;1.90;;;;;;;;;;8280661;28;20765;-64
2021/12/20 13:09:59;;;;;;;9.13;1.83;;;;;;;;;;8281484;28;20025;-64
2021/12/20 13:14:08;;;;;;;11.00;2.25;;;;;;;;;;8277969;28;20033;-64
2021/12/20 13:18:11;;;;;;;6.40;1.85;;;;;;;;;;8280279;28;20041;-64
2021/12/20 13:22:12;;;;;;;11.82;1.90;;;;;;;;;;8278049;28;20028;-64
2021/12/20 13:26:17;;;;;;;9.40;1.92;;;;;;;;;;8282385;28;20025;-64
2021/12/20 13:30:27;;;;;;;10.88;2.03;;;;;;;;;;8280343;28;20053;-64
2021/12/20 13:34:27;;;;;;;9.63;2.05;;;;;;;;;;8281344;28;20122;-64
2021/12/20 13:38:29;;;;;;;8.43;1.77;;;;;;;;;;8284697;28;20058;-64
2021/12/20 13:42:30;;;;;;;6.65;1.60;;;;;;;;;;8277987;28;20025;-64
2021/12/20 13:46:41;;;;;;;5.15;1.60;;;;;;;;;;8284742;28;20049;-64
2021/12/20 13:50:42;;;;;;;7.00;1.50;;;;;;;;;;8284930;28;20039;-64
2021/12/20 13:54:43;;;;;;;9.43;1.80;;;;;;;;;;8282158;28;20380;-64
2021/12/20 13:58:45;;;;;;;6.55;1.77;;;;;;;;;;8283430;28;20030;-64
2021/12/20 14:02:47;;;;;;;11.60;1.83;;;;;;;;;;8287484;28;20364;-64
2021/12/20 14:06:47;;;;;;;6.72;1.35;;;;;;;;;;8287438;28;20025;-64
2021/12/20 14:10:48;;;;;;;9.00;1.30;;;;;;;;;;8285222;28;20413;-64
2021/12/20 14:14:55;;;;;;;5.35;1.63;;;;;;;;;;8289712;28;20041;-64
2021/12/20 14:18:56;;;;;;;4.25;0.93;;;;;;;;;;8306628;28;20033;-64
2021/12/20 14:23:00;;;;;;;5.05;1.02;;;;;;;;;;8289218;28;20021;-64
2021/12/20 14:27:03;;;;;;;5.35;1.80;;;;;;;;;;8290471;28;20419;-64
2021/12/20 14:31:07;;;;;;;6.17;1.40;;;;;;;;;;8278897;28;20042;-64
2021/12/20 14:35:27;;;;;;;8.43;1.40;;;;;;;;;;8288745;28;20485;-64
2021/12/20 14:39:27;;;;;;;7.03;1.45;;;;;;;;;;8290032;28;20068;-64
2021/12/20 14:43:28;;;;;;;6.88;1.70;;;;;;;;;;8286424;28;20063;-64
2021/12/20 14:47:39;;;;;;;5.32;1.40;;;;;;;;;;8287511;28;20113;-65
2021/12/20 14:51:39;;;;;;;8.00;1.63;;;;;;;;;;8289362;28;20459;-65
2021/12/20 14:55:39;;;;;;;5.00;1.33;;;;;;;;;;8289139;28;20025;-64
2021/12/20 14:59:39;;;;;;;10.38;2.20;;;;;;;;;;8288078;28;20517;-64
2021/12/20 15:03:42;;;;;;;5.25;1.35;;;;;;;;;;8288995;28;20420;-64
2021/12/20 15:07:42;;;;;;;9.00;2.13;;;;;;;;;;8286618;28;20409;-65
2021/12/20 15:11:43;;;;;;;5.65;1.20;;;;;;;;;;8290948;28;20821;-64
2021/12/20 15:15:44;;;;;;;5.32;1.65;;;;;;;;;;8288775;28;20041;-64
2021/12/20 15:19:44;;;;;;;7.63;1.80;;;;;;;;;;8288084;28;20106;-64
2021/12/20 15:23:44;;;;;;;5.90;1.60;;;;;;;;;;8287893;28;20116;-64
2021/12/20 15:27:44;;;;;;;5.20;1.67;;;;;;;;;;8286315;28;20036;-64
2021/12/20 15:31:45;;;;;;;8.95;1.70;;;;;;;;;;8286020;28;20069;-64
2021/12/20 15:35:45;;;;;;;10.85;2.00;;;;;;;;;;8289559;28;20022;-64
2021/12/20 15:39:46;;;;;;;9.15;1.67;;;;;;;;;;8289083;28;20029;-64
2021/12/20 15:43:46;;;;;;;8.05;2.00;;;;;;;;;;8289138;28;20017;-64
2021/12/20 15:47:46;;;;;;;7.07;1.50;;;;;;;;;;8288645;28;20462;-64
2021/12/20 15:51:46;;;;;;;3.30;1.30;;;;;;;;;;8288528;28;20832;-64
2021/12/20 15:55:47;;;;;;;6.57;1.42;;;;;;;;;;8287587;28;20505;-64
2021/12/20 15:59:47;;;;;;;5.55;1.65;;;;;;;;;;8285947;28;20022;-64
2021/12/20 16:03:47;;;;;;;5.50;1.73;;;;;;;;;;8283867;28;20833;-64
2021/12/20 16:07:47;;;;;;;7.27;1.93;;;;;;;;;;8286045;28;20053;-64
2021/12/20 16:11:47;;;;;;;9.67;2.07;;;;;;;;;;8288703;28;20280;-64
2021/12/20 16:15:52;;;;;;;6.55;1.95;;;;;;;;;;8285004;28;20650;-64
2021/12/20 16:19:52;;;;;;;6.63;2.03;;;;;;;;;;8286525;28;20748;-64
2021/12/20 16:23:52;;;;;;;2.70;1.33;;;;;;;;;;8284484;28;20088;-64
2021/12/20 16:27:53;;;;;;;5.78;1.98;;;;;;;;;;8287049;28;20279;-64
2021/12/20 16:31:53;;;;;;;9.02;2.28;;;;;;;;;;8285704;28;20770;-64
2021/12/20 16:35:53;;;;;;;6.43;2.33;;;;;;;;;;8287182;28;21025;-64
2021/12/20 16:39:54;;;;;;;6.43;1.70;;;;;;;;;;8288315;28;21365;-64
2021/12/20 16:43:54;;;;;;;7.35;2.22;;;;;;;;;;8288962;28;20056;-64
2021/12/20 16:48:08;;;;;;;11.18;1.90;;;;;;;;;;8273450;28;20048;-64
2021/12/20 16:52:08;;;;;;;7.13;1.80;;;;;;;;;;8287481;28;20104;-65
2021/12/20 16:56:08;;;;;;;11.35;2.15;;;;;;;;;;8285485;28;20034;-64
2021/12/20 17:00:09;;;;;;;7.70;1.77;;;;;;;;;;8285957;28;20049;-64
2021/12/20 17:08:11;;;;;;;6.22;2.10;;;;;;;;;;8287386;28;20119;-64
2021/12/20 17:12:12;;;;;;;6.60;2.20;;;;;;;;;;8281789;28;20028;-63
2021/12/20 17:16:12;;;;;;;7.00;2.13;;;;;;;;;;8283348;28;20072;-64
2021/12/20 17:20:12;;;;;;;15.73;2.10;;;;;;;;;;8289467;28;20378;-64
2021/12/20 17:24:13;;;;;;;8.68;2.00;;;;;;;;;;8293957;28;20036;-63
2021/12/20 17:28:13;;;;;;;6.05;1.80;;;;;;;;;;8290034;28;20920;-64
2021/12/20 17:32:13;;;;;;;4.65;1.75;;;;;;;;;;8297265;28;20665;-64
2021/12/20 17:36:13;;;;;;;8.80;2.10;;;;;;;;;;8290772;28;20024;-64
2021/12/20 17:40:14;;;;;;;8.05;2.15;;;;;;;;;;8291163;28;20054;-65
2021/12/20 17:44:15;;;;;;;7.47;2.22;;;;;;;;;;8289673;28;20036;-65
2021/12/20 17:48:15;;;;;;;8.93;2.83;;;;;;;;;;8290127;28;20597;-66
2021/12/20 17:52:15;;;;;;;7.40;2.40;;;;;;;;;;8291579;28;20025;-64
2021/12/20 17:56:15;;;;;;;15.47;2.90;;;;;;;;;;8288552;28;20029;-64
2021/12/20 18:00:17;;;;;;;5.72;2.60;;;;;;;;;;8291928;28;20305;-64
2021/12/20 18:04:18;;;;;;;6.93;2.53;;;;;;;;;;8293530;28;20060;-64
2021/12/20 18:08:19;;;;;;;8.68;2.50;;;;;;;;;;8292848;28;20025;-64
2021/12/20 18:12:21;;;;;;;12.32;2.67;;;;;;;;;;8287812;28;20073;-64
2021/12/20 18:16:22;;;;;;;7.97;2.30;;;;;;;;;;8289533;28;20138;-64
2021/12/20 18:20:25;;;;;;;8.38;2.63;;;;;;;;;;8288895;28;20025;-64
2021/12/20 18:24:25;;;;;;;16.45;3.03;;;;;;;;;;8288169;28;20014;-64
2021/12/20 18:28:25;;;;;;;13.57;2.63;;;;;;;;;;8287940;28;20025;-64
2021/12/20 18:32:25;;;;;;;7.00;2.78;;;;;;;;;;8287203;28;20536;-64
2021/12/20 18:36:26;;;;;;;6.95;2.20;;;;;;;;;;8289498;28;20139;-64
2021/12/20 18:40:26;;;;;;;7.33;2.87;;;;;;;;;;8291499;28;20021;-64
2021/12/20 18:44:27;;;;;;;9.48;2.50;;;;;;;;;;8288483;28;20276;-64
2021/12/20 18:48:27;;;;;;;9.85;2.15;;;;;;;;;;8287431;28;20066;-64
2021/12/20 18:52:27;;;;;;;6.27;2.13;;;;;;;;;;8288331;28;20095;-64
2021/12/20 18:56:28;;;;;;;8.13;2.42;;;;;;;;;;8287594;28;20358;-64
2021/12/20 19:00:28;;;;;;;7.70;2.30;;;;;;;;;;8287718;28;20045;-64
2021/12/20 19:04:30;;;;;;;4.05;2.03;;;;;;;;;;8290125;28;20398;-63
2021/12/20 19:08:31;;;;;;;6.18;1.98;;;;;;;;;;8290225;28;20288;-63
2021/12/20 19:12:35;;;;;;;6.57;2.20;;;;;;;;;;8285553;28;20198;-63
2021/12/20 19:16:36;;;;;;;5.45;2.17;;;;;;;;;;8285932;28;20112;-64
2021/12/20 19:20:36;;;;;;;5.68;2.30;;;;;;;;;;8286189;28;20072;-63
2021/12/20 19:24:39;;;;;;;8.93;1.80;;;;;;;;;;8284936;28;20068;-63
2021/12/20 19:28:40;;;;;;;19.00;2.63;;;;;;;;;;8285424;28;20034;-63
2021/12/20 19:32:40;;;;;;;10.32;2.50;;;;;;;;;;8288857;28;20306;-64
2021/12/20 19:36:41;;;;;;;6.82;2.10;;;;;;;;;;8288657;28;20855;-64
2021/12/20 19:40:41;;;;;;;10.45;2.83;;;;;;;;;;8290767;28;20018;-64
2021/12/20 19:44:42;;;;;;;7.85;2.15;;;;;;;;;;8284534;28;20032;-63
2021/12/20 19:48:42;;;;;;;8.85;1.85;;;;;;;;;;8282248;28;20968;-63
2021/12/20 19:52:42;;;;;;;4.60;2.08;;;;;;;;;;8282717;28;20283;-63
2021/12/20 19:56:42;;;;;;;5.60;2.40;;;;;;;;;;8279141;28;20509;-63
2021/12/20 20:00:43;;;;;;;9.68;2.58;;;;;;;;;;8281803;28;20449;-64
2021/12/20 20:04:43;;;;;;;5.40;1.85;;;;;;;;;;8281566;28;20357;-63
2021/12/20 20:08:43;;;;;;;7.82;2.17;;;;;;;;;;8280383;28;20293;-63
2021/12/20 20:12:43;;;;;;;11.52;2.47;;;;;;;;;;8278829;28;20132;-63
2021/12/20 20:16:44;;;;;;;6.65;1.98;;;;;;;;;;8280451;28;20037;-63
2021/12/20 20:20:44;;;;;;;9.98;2.22;;;;;;;;;;8281794;28;20672;-63
2021/12/20 20:24:45;;;;;;;5.90;2.00;;;;;;;;;;8280311;28;20037;-63
2021/12/20 20:28:47;;;;;;;5.05;2.42;;;;;;;;;;8278301;28;20279;-63
2021/12/20 20:32:47;;;;;;;8.32;2.75;;;;;;;;;;8281547;28;20042;-63
2021/12/20 20:36:48;;;;;;;6.30;2.00;;;;;;;;;;8280158;28;20548;-63
2021/12/20 20:40:48;;;;;;;7.25;2.42;;;;;;;;;;8280571;28;20029;-63
2021/12/20 20:44:48;;;;;;;14.43;2.50;;;;;;;;;;8281577;28;20578;-63
2021/12/20 20:48:48;;;;;;;9.07;2.30;;;;;;;;;;8277786;28;20177;-63
2021/12/20 20:52:48;;;;;;;7.25;2.13;;;;;;;;;;8278912;28;20257;-63
2021/12/20 20:56:49;;;;;;;9.85;3.08;;;;;;;;;;8277558;28;20060;-64
2021/12/20 21:05:08;;;;;;;8.00;2.30;;;;;;;;;;8280817;28;20778;-63
2021/12/20 21:09:09;;;;;;;14.23;2.78;;;;;;;;;;8276789;28;20060;-63
2021/12/20 21:13:09;;;;;;;8.20;2.50;;;;;;;;;;8277509;28;20570;-63
2021/12/20 21:17:10;;;;;;;4.57;2.28;;;;;;;;;;8274729;28;20045;-63
2021/12/20 21:21:10;;;;;;;11.80;2.95;;;;;;;;;;8277896;28;20048;-63
2021/12/20 21:25:10;;;;;;;8.10;2.20;;;;;;;;;;8277980;28;20075;-63
2021/12/20 21:29:12;;;;;;;8.75;2.53;;;;;;;;;;8278472;28;20035;-63
2021/12/20 21:33:13;;;;;;;8.43;2.72;;;;;;;;;;8276187;28;20153;-63
2021/12/20 21:37:14;;;;;;;11.60;2.75;;;;;;;;;;8279284;28;20108;-63
2021/12/20 21:41:14;;;;;;;6.35;2.35;;;;;;;;;;8278754;28;20308;-63
2021/12/20 21:45:14;;;;;;;5.65;2.20;;;;;;;;;;8277501;28;20017;-63
2021/12/20 21:49:15;;;;;;;7.53;2.33;;;;;;;;;;8276948;28;20026;-63
2021/12/20 21:53:15;;;;;;;9.82;2.38;;;;;;;;;;8277975;28;20039;-63
2021/12/20 21:57:15;;;;;;;5.32;2.47;;;;;;;;;;8276816;28;20045;-63
2021/12/20 22:01:15;;;;;;;6.43;2.50;;;;;;;;;;8278088;28;20425;-63
2021/12/20 22:05:15;;;;;;;7.80;2.78;;;;;;;;;;8282308;28;20374;-63
2021/12/20 22:09:16;;;;;;;9.77;2.53;;;;;;;;;;8284616;28;20083;-63
2021/12/20 22:13:16;;;;;;;5.30;2.20;;;;;;;;;;8283134;28;20033;-63
2021/12/20 22:17:16;;;;;;;7.83;2.60;;;;;;;;;;8279977;28;20318;-63
2021/12/20 22:21:16;;;;;;;8.37;2.47;;;;;;;;;;8286474;28;20329;-63
2021/12/20 22:25:17;;;;;;;5.35;2.38;;;;;;;;;;8285127;28;20274;-63
2021/12/20 22:29:17;;;;;;;5.38;2.42;;;;;;;;;;8285490;28;20028;-63
2021/12/20 22:33:17;;;;;;;8.05;2.75;;;;;;;;;;8282048;28;20466;-63
2021/12/20 22:37:18;;;;;;;8.07;2.70;;;;;;;;;;8282002;28;20032;-63
2021/12/20 22:41:18;;;;;;;3.13;1.85;;;;;;;;;;8283984;28;20866;-63
2021/12/20 22:45:19;;;;;;;8.85;2.00;;;;;;;;;;8280542;28;20029;-63
2021/12/20 22:49:19;;;;;;;7.03;2.55;;;;;;;;;;8280120;28;20032;-63
2021/12/20 22:53:19;;;;;;;5.97;2.65;;;;;;;;;;8282151;28;20029;-63
2021/12/20 22:57:19;;;;;;;4.47;1.70;;;;;;;;;;8280313;28;20094;-63
2021/12/20 23:01:20;;;;;;;8.23;2.25;;;;;;;;;;8280742;28;20041;-63
2021/12/20 23:05:21;;;;;;;4.40;2.10;;;;;;;;;;8280113;28;20024;-63
2021/12/20 23:09:22;;;;;;;5.68;2.38;;;;;;;;;;8280722;28;20045;-63
2021/12/20 23:13:25;;;;;;;7.97;2.05;;;;;;;;;;8282744;28;20033;-63
2021/12/20 23:17:25;;;;;;;5.82;1.77;;;;;;;;;;8279674;28;21250;-63
2021/12/20 23:21:25;;;;;;;5.40;2.28;;;;;;;;;;8283608;28;20451;-63
2021/12/20 23:25:25;;;;;;;4.32;1.90;;;;;;;;;;8286151;28;20609;-63
2021/12/20 23:29:25;;;;;;;7.97;2.38;;;;;;;;;;8282415;28;20040;-63
2021/12/20 23:33:26;;;;;;;5.43;2.25;;;;;;;;;;8281184;28;20149;-63
2021/12/20 23:37:27;;;;;;;4.78;1.95;;;;;;;;;;8280641;28;20435;-63
2021/12/20 23:41:31;;;;;;;3.58;1.95;;;;;;;;;;8279932;28;20018;-63
2021/12/20 23:45:32;;;;;;;5.45;2.05;;;;;;;;;;8279475;28;20596;-63
2021/12/20 23:49:32;;;;;;;4.00;2.00;;;;;;;;;;8282216;28;20541;-63
2021/12/20 23:53:33;;;;;;;6.15;1.95;;;;;;;;;;8282404;28;20032;-63
2021/12/20 23:57:33;;;;;;;7.43;2.50;;;;;;;;;;8282508;28;20195;-63
